Time;durP1;ratioP1;P1;durP2;ratioP2;P2;SDS_P1;SDS_P2;PMS_P1;PMS_P2;Temp;Humidity;BMP_temperature;BMP_pressure;BME280_temperature;BME280_humidity;BME280_pressure;Samples;Min_cycle;Max_cycle;Signal;HPM_P1;HPM_P2
2021/04/19 00:02:41;;;;;;;24.50;16.20;;;8.60;99.90;;;;;;5068037;28;20485;-69
2021/04/19 00:05:27;;;;;;;20.73;15.77;;;8.70;99.90;;;;;;5065649;28;20491;-72
2021/04/19 00:08:12;;;;;;;23.73;16.10;;;8.70;99.90;;;;;;5053393;28;20425;-70
2021/04/19 00:10:57;;;;;;;22.33;16.20;;;8.70;99.90;;;;;;5063679;28;20470;-71
2021/04/19 00:13:43;;;;;;;24.90;16.37;;;8.60;99.90;;;;;;5056828;28;20434;-71
2021/04/19 00:16:28;;;;;;;23.80;16.80;;;8.60;99.90;;;;;;5055732;28;20432;-72
2021/04/19 00:19:14;;;;;;;22.87;17.23;;;8.70;99.90;;;;;;5060172;28;20452;-71
2021/04/19 00:22:00;;;;;;;19.80;15.93;;;8.80;99.90;;;;;;5056311;28;20921;-72
2021/04/19 00:24:45;;;;;;;25.87;17.77;;;8.80;99.90;;;;;;5064328;28;21031;-71
2021/04/19 00:27:30;;;;;;;20.73;15.47;;;8.90;99.90;;;;;;5061513;28;20426;-71
2021/04/19 00:30:16;;;;;;;22.40;15.90;;;8.90;99.90;;;;;;5065583;28;20525;-70
2021/04/19 00:33:01;;;;;;;25.30;17.57;;;9.00;99.90;;;;;;5059627;28;20469;-71
2021/04/19 00:35:46;;;;;;;24.37;17.60;;;9.10;99.90;;;;;;5054505;28;20562;-72
2021/04/19 00:38:32;;;;;;;27.00;18.30;;;9.10;99.90;;;;;;5055198;28;20497;-72
2021/04/19 00:41:19;;;;;;;26.03;16.20;;;9.20;99.90;;;;;;5050909;28;20443;-70
2021/04/19 00:44:05;;;;;;;24.43;17.13;;;9.10;99.90;;;;;;5062083;28;20452;-71
2021/04/19 00:46:50;;;;;;;23.60;16.30;;;9.10;99.90;;;;;;5064983;28;20446;-70
2021/04/19 00:49:35;;;;;;;20.20;14.93;;;9.10;99.90;;;;;;5056738;28;20954;-72
2021/04/19 00:52:22;;;;;;;23.47;17.50;;;9.20;99.90;;;;;;5052931;28;20520;-71
2021/04/19 00:55:11;;;;;;;21.53;17.50;;;9.10;99.90;;;;;;5064218;28;20477;-72
2021/04/19 00:57:57;;;;;;;31.73;18.37;;;9.10;99.90;;;;;;5062425;28;20478;-71
2021/04/19 01:00:42;;;;;;;24.03;17.70;;;9.10;99.90;;;;;;5059433;28;20446;-72
2021/04/19 01:03:27;;;;;;;32.20;19.70;;;9.00;99.90;;;;;;5064785;28;20409;-71
2021/04/19 01:06:12;;;;;;;27.73;19.40;;;8.80;99.90;;;;;;5059831;28;20461;-72
2021/04/19 01:08:57;;;;;;;24.43;17.70;;;8.70;99.90;;;;;;5062469;28;20473;-72
2021/04/19 01:11:43;;;;;;;26.23;18.23;;;8.70;99.90;;;;;;5057226;28;20539;-71
2021/04/19 01:14:28;;;;;;;32.77;18.30;;;8.70;99.90;;;;;;5056673;28;20462;-71
2021/04/19 01:17:14;;;;;;;28.43;19.93;;;8.80;99.90;;;;;;5064244;28;20493;-73
2021/04/19 01:19:59;;;;;;;25.17;18.07;;;8.80;99.90;;;;;;5057832;28;20658;-72
2021/04/19 01:22:45;;;;;;;25.67;19.63;;;8.90;99.90;;;;;;5060734;28;20494;-71
2021/04/19 01:25:30;;;;;;;24.13;18.00;;;8.90;99.90;;;;;;5054612;28;20503;-71
2021/04/19 01:28:17;;;;;;;22.47;18.67;;;9.00;99.90;;;;;;5057064;28;20462;-71
2021/04/19 01:31:01;;;;;;;21.70;17.70;;;9.00;99.90;;;;;;5058055;28;20437;-73
2021/04/19 01:33:47;;;;;;;22.17;18.40;;;9.10;99.90;;;;;;5065080;28;20515;-71
2021/04/19 01:36:32;;;;;;;21.30;18.30;;;9.20;99.90;;;;;;5065613;28;20490;-70
2021/04/19 01:39:18;;;;;;;27.20;19.23;;;9.20;99.90;;;;;;5058835;28;20523;-71
2021/04/19 01:42:03;;;;;;;23.10;17.00;;;9.20;99.90;;;;;;5070765;28;20466;-72
2021/04/19 01:44:49;;;;;;;32.67;19.50;;;9.20;99.90;;;;;;5064108;28;20500;-71
2021/04/19 01:47:34;;;;;;;25.70;19.17;;;9.10;99.90;;;;;;5059033;28;20530;-72
2021/04/19 01:50:22;;;;;;;26.20;19.20;;;9.10;99.90;;;;;;5057966;28;21002;-71
2021/04/19 01:53:07;;;;;;;25.20;19.53;;;9.10;99.90;;;;;;5060611;28;20417;-72
2021/04/19 01:55:53;;;;;;;24.87;18.80;;;9.10;99.90;;;;;;5064012;28;20464;-72
2021/04/19 01:58:38;;;;;;;23.03;18.43;;;9.00;99.90;;;;;;5063080;28;20444;-72
2021/04/19 02:01:24;;;;;;;29.87;22.20;;;9.00;99.90;;;;;;5062608;28;20421;-72
2021/04/19 02:04:15;;;;;;;27.70;19.70;;;9.00;99.90;;;;;;5060980;28;20514;-71
2021/04/19 02:07:06;;;;;;;26.97;20.27;;;8.90;99.90;;;;;;5066229;28;20434;-72
2021/04/19 02:10:01;;;;;;;27.03;20.23;;;8.80;99.90;;;;;;5064640;28;20417;-71
2021/04/19 02:12:55;;;;;;;28.70;20.50;;;8.70;99.90;;;;;;5066913;28;20424;-71
2021/04/19 02:15:49;;;;;;;29.27;21.63;;;8.70;99.90;;;;;;5066112;28;20450;-71
2021/04/19 02:18:44;;;;;;;27.87;19.60;;;8.80;99.90;;;;;;5061272;28;20487;-72
2021/04/19 02:21:38;;;;;;;24.97;20.93;;;8.90;99.90;;;;;;5063737;28;20592;-70
2021/04/19 02:24:25;;;;;;;29.30;20.13;;;8.90;99.90;;;;;;5058815;28;20563;-72
2021/04/19 02:27:14;;;;;;;26.83;20.50;;;8.90;99.90;;;;;;5062300;28;20484;-72
2021/04/19 02:30:05;;;;;;;26.00;20.73;;;8.80;99.90;;;;;;5064545;28;20565;-71
2021/04/19 02:32:52;;;;;;;28.47;22.13;;;8.90;99.90;;;;;;5068508;28;20482;-71
2021/04/19 02:35:42;;;;;;;30.80;19.93;;;8.90;99.90;;;;;;5059776;28;20441;-71
2021/04/19 02:38:30;;;;;;;28.67;22.53;;;8.90;99.90;;;;;;5062916;28;20446;-71
2021/04/19 02:41:16;;;;;;;26.47;21.10;;;9.00;99.90;;;;;;5058207;28;20471;-70
2021/04/19 02:44:03;;;;;;;26.33;20.97;;;9.00;99.90;;;;;;5063851;28;20442;-72
2021/04/19 02:46:52;;;;;;;27.17;20.37;;;9.00;99.90;;;;;;5061705;28;20418;-71
2021/04/19 02:49:38;;;;;;;21.13;18.30;;;9.00;99.90;;;;;;5063298;28;20446;-71
2021/04/19 02:52:25;;;;;;;26.67;18.87;;;9.00;99.90;;;;;;5062097;28;20436;-71
2021/04/19 02:55:12;;;;;;;27.10;19.47;;;9.10;99.90;;;;;;5062729;28;20478;-71
2021/04/19 02:58:01;;;;;;;26.80;20.10;;;9.10;99.90;;;;;;5062771;28;20569;-71
2021/04/19 03:00:49;;;;;;;26.80;21.60;;;9.10;99.90;;;;;;5064291;28;20443;-70
2021/04/19 03:03:38;;;;;;;26.17;19.57;;;9.10;99.90;;;;;;5059002;28;20980;-72
2021/04/19 03:06:25;;;;;;;22.83;19.87;;;9.10;99.90;;;;;;5056919;28;20998;-70
2021/04/19 03:09:12;;;;;;;34.30;21.43;;;9.10;99.90;;;;;;5057896;28;20521;-71
2021/04/19 03:12:01;;;;;;;25.90;21.03;;;9.20;99.90;;;;;;5060953;28;20491;-71
2021/04/19 03:14:51;;;;;;;27.40;20.10;;;9.20;99.90;;;;;;5065660;28;20615;-71
2021/04/19 03:17:37;;;;;;;26.70;22.07;;;9.20;99.90;;;;;;5056026;28;20575;-71
2021/04/19 03:20:26;;;;;;;25.50;19.33;;;9.20;99.90;;;;;;5060665;28;20417;-71
2021/04/19 03:23:12;;;;;;;24.63;19.77;;;9.30;99.90;;;;;;5063067;28;20525;-71
2021/04/19 03:25:58;;;;;;;28.93;19.43;;;9.30;99.90;;;;;;5060070;28;20594;-71
2021/04/19 03:28:46;;;;;;;28.23;20.43;;;9.20;99.90;;;;;;5060696;28;20812;-72
2021/04/19 03:31:36;;;;;;;32.17;21.47;;;9.20;99.90;;;;;;5054439;28;20453;-72
2021/04/19 03:34:23;;;;;;;31.27;23.37;;;9.20;99.90;;;;;;5063324;28;20482;-72
2021/04/19 03:37:14;;;;;;;31.00;21.87;;;9.10;99.90;;;;;;5060275;28;20457;-72
2021/04/19 03:40:04;;;;;;;32.73;22.87;;;9.10;99.90;;;;;;5063721;28;20530;-72
2021/04/19 03:42:54;;;;;;;29.80;23.27;;;9.20;99.90;;;;;;5067719;28;21292;-70
2021/04/19 03:45:39;;;;;;;28.00;21.70;;;9.20;99.90;;;;;;5059829;28;20483;-71
2021/04/19 03:48:26;;;;;;;31.07;22.33;;;9.20;99.90;;;;;;5053987;28;20493;-69
2021/04/19 03:51:17;;;;;;;31.00;23.17;;;9.20;99.90;;;;;;5063774;28;20475;-71
2021/04/19 03:54:03;;;;;;;29.17;22.63;;;9.20;99.90;;;;;;5064033;28;20465;-71
2021/04/19 03:56:50;;;;;;;28.30;22.00;;;9.20;99.90;;;;;;5058892;28;20501;-71
2021/04/19 03:59:38;;;;;;;32.80;23.87;;;9.20;99.90;;;;;;5056169;28;20446;-71
2021/04/19 04:02:26;;;;;;;32.53;23.17;;;9.10;99.90;;;;;;5064200;28;20435;-72
2021/04/19 04:05:13;;;;;;;29.00;21.77;;;9.10;99.90;;;;;;5058162;28;20471;-72
2021/04/19 04:07:59;;;;;;;31.57;22.77;;;9.20;99.90;;;;;;5063869;28;20455;-70
2021/04/19 04:10:46;;;;;;;29.53;22.27;;;9.20;99.90;;;;;;5057469;28;20470;-70
2021/04/19 04:13:34;;;;;;;30.27;23.23;;;9.20;99.90;;;;;;5065773;28;20996;-69
2021/04/19 04:16:20;;;;;;;28.33;23.17;;;9.20;99.90;;;;;;5063524;28;20421;-71
2021/04/19 04:19:05;;;;;;;33.43;23.80;;;9.10;99.90;;;;;;5062116;28;20450;-71
2021/04/19 04:21:50;;;;;;;30.60;23.20;;;9.10;99.90;;;;;;5058282;28;20498;-71
2021/04/19 04:24:37;;;;;;;29.23;23.13;;;9.00;99.90;;;;;;5058071;28;20471;-71
2021/04/19 04:27:23;;;;;;;34.47;24.57;;;9.00;99.90;;;;;;5059754;28;21145;-72
2021/04/19 04:30:09;;;;;;;28.00;22.50;;;9.10;99.90;;;;;;5058810;28;20523;-71
2021/04/19 04:32:54;;;;;;;29.03;22.87;;;9.00;99.90;;;;;;5061519;28;20470;-72
2021/04/19 04:35:39;;;;;;;30.80;24.00;;;9.00;99.90;;;;;;5061255;28;20502;-72
2021/04/19 04:38:24;;;;;;;31.53;24.63;;;9.10;99.90;;;;;;5058816;28;20451;-71
2021/04/19 04:41:10;;;;;;;32.47;23.47;;;9.00;99.90;;;;;;5058010;28;20461;-72
2021/04/19 04:43:59;;;;;;;30.80;23.70;;;9.00;99.90;;;;;;5064687;28;20447;-71
2021/04/19 04:46:57;;;;;;;28.00;21.63;;;9.00;99.90;;;;;;5061384;28;20453;-71
2021/04/19 04:49:48;;;;;;;35.70;24.90;;;9.10;99.90;;;;;;5055356;28;21063;-72
2021/04/19 04:52:38;;;;;;;31.83;23.57;;;9.10;99.90;;;;;;5057848;28;20461;-69
2021/04/19 04:55:24;;;;;;;31.03;22.93;;;9.10;99.90;;;;;;5062603;28;20495;-71
2021/04/19 04:58:10;;;;;;;33.87;23.90;;;9.10;99.90;;;;;;5062647;28;20589;-71
2021/04/19 05:00:58;;;;;;;32.40;24.53;;;9.00;99.90;;;;;;5054018;28;20486;-72
2021/04/19 05:03:45;;;;;;;30.50;26.00;;;8.90;99.90;;;;;;5054738;28;20814;-72
2021/04/19 05:06:31;;;;;;;42.87;26.97;;;8.90;99.90;;;;;;5063458;28;20470;-71
2021/04/19 05:09:16;;;;;;;36.00;26.13;;;8.90;99.90;;;;;;5063126;28;20558;-71
2021/04/19 05:12:01;;;;;;;37.50;25.03;;;9.00;99.90;;;;;;5065356;28;20516;-72
2021/04/19 05:15:00;;;;;;;33.43;24.27;;;9.10;99.90;;;;;;5065624;28;21019;-71
2021/04/19 05:17:47;;;;;;;33.30;23.70;;;9.20;99.90;;;;;;5059648;28;20620;-71
2021/04/19 05:20:32;;;;;;;34.30;24.27;;;9.20;99.90;;;;;;5061292;28;20497;-72
2021/04/19 05:23:18;;;;;;;32.63;24.97;;;9.20;99.90;;;;;;5059367;28;20446;-72
2021/04/19 05:26:03;;;;;;;35.90;26.30;;;9.10;99.90;;;;;;5059017;28;20495;-71
2021/04/19 05:28:48;;;;;;;32.30;25.10;;;9.10;99.90;;;;;;5064711;28;20416;-72
2021/04/19 05:31:35;;;;;;;36.23;27.13;;;9.20;99.90;;;;;;5064779;28;20813;-72
2021/04/19 05:34:21;;;;;;;32.77;26.20;;;9.10;99.90;;;;;;5060272;28;20537;-71
2021/04/19 05:37:07;;;;;;;38.50;27.40;;;9.20;99.90;;;;;;5056555;28;20418;-72
2021/04/19 05:39:53;;;;;;;36.60;27.97;;;9.30;99.90;;;;;;5052199;28;20426;-72
2021/04/19 05:42:39;;;;;;;39.70;27.83;;;9.30;99.90;;;;;;5059099;28;20417;-72
2021/04/19 05:45:25;;;;;;;33.93;27.70;;;9.30;99.90;;;;;;5061375;28;20491;-71
2021/04/19 05:48:10;;;;;;;36.27;28.13;;;9.30;99.90;;;;;;5062431;28;20461;-71
2021/04/19 05:50:59;;;;;;;35.60;27.47;;;9.40;99.90;;;;;;5053529;28;20492;-70
2021/04/19 05:53:44;;;;;;;39.40;28.80;;;9.40;99.90;;;;;;5066347;28;20454;-70
2021/04/19 05:56:42;;;;;;;39.87;29.93;;;9.50;99.90;;;;;;5060456;28;20446;-71
2021/04/19 05:59:39;;;;;;;34.67;27.47;;;9.50;99.90;;;;;;5060023;28;20456;-70
2021/04/19 06:02:43;;;;;;;36.23;29.17;;;9.60;99.90;;;;;;5055967;28;20446;-71
2021/04/19 06:05:32;;;;;;;43.67;30.57;;;9.60;99.90;;;;;;5064933;28;20444;-72
2021/04/19 06:08:23;;;;;;;41.93;32.63;;;9.60;99.90;;;;;;5063979;28;20449;-71
2021/04/19 06:11:14;;;;;;;45.97;30.70;;;9.60;99.90;;;;;;5060039;28;20445;-69
2021/04/19 06:14:01;;;;;;;40.77;31.47;;;9.70;99.90;;;;;;5056619;28;20495;-71
2021/04/19 06:16:48;;;;;;;46.70;32.37;;;9.80;99.90;;;;;;5068100;28;20471;-71
2021/04/19 06:19:37;;;;;;;41.73;32.87;;;9.80;99.90;;;;;;5068341;28;20452;-72
2021/04/19 06:22:22;;;;;;;44.63;34.57;;;9.80;99.90;;;;;;5063978;28;20527;-70
2021/04/19 06:25:11;;;;;;;43.03;32.97;;;9.80;99.90;;;;;;5068692;28;20552;-72
2021/04/19 06:28:01;;;;;;;47.10;33.33;;;9.90;99.90;;;;;;5061661;28;20841;-72
2021/04/19 06:30:49;;;;;;;45.53;33.40;;;9.90;99.90;;;;;;5064936;28;20489;-72
2021/04/19 06:33:35;;;;;;;44.93;33.43;;;9.90;99.90;;;;;;5065512;28;20943;-72
2021/04/19 06:36:20;;;;;;;48.80;36.17;;;10.00;99.90;;;;;;5065298;28;20471;-71
2021/04/19 06:39:06;;;;;;;45.17;35.13;;;10.10;99.90;;;;;;5057804;28;20472;-72
2021/04/19 06:41:52;;;;;;;45.17;36.17;;;10.10;99.90;;;;;;5073212;28;20465;-70
2021/04/19 06:44:38;;;;;;;53.70;35.40;;;10.10;99.90;;;;;;5064007;28;20432;-71
2021/04/19 06:47:23;;;;;;;55.60;37.23;;;10.20;99.90;;;;;;5062508;28;20531;-71
2021/04/19 06:50:10;;;;;;;54.40;37.20;;;10.10;99.90;;;;;;5067428;28;20814;-71
2021/04/19 06:52:55;;;;;;;52.03;37.93;;;10.10;99.90;;;;;;5062361;28;20422;-72
2021/04/19 06:55:41;;;;;;;58.00;38.87;;;10.10;99.90;;;;;;5065643;28;20456;-72
2021/04/19 06:58:28;;;;;;;51.17;38.47;;;10.10;99.90;;;;;;5063046;28;20495;-71
2021/04/19 07:01:13;;;;;;;50.00;37.97;;;10.10;99.90;;;;;;5066899;28;20416;-72
2021/04/19 07:04:01;;;;;;;52.73;36.70;;;10.20;99.90;;;;;;5056894;28;20438;-71
2021/04/19 07:06:48;;;;;;;57.00;37.90;;;10.20;99.90;;;;;;5066105;28;20442;-70
2021/04/19 07:09:36;;;;;;;54.43;38.00;;;10.30;99.90;;;;;;5067328;28;20500;-71
2021/04/19 07:12:23;;;;;;;57.13;37.30;;;10.30;99.90;;;;;;5064327;28;20441;-72
2021/04/19 07:15:10;;;;;;;53.17;38.47;;;10.10;99.90;;;;;;5067818;28;20497;-72
2021/04/19 07:17:55;;;;;;;54.67;38.80;;;9.90;99.90;;;;;;5067152;28;20872;-72
2021/04/19 07:20:41;;;;;;;56.63;37.60;;;10.00;99.90;;;;;;5066449;28;20999;-72
2021/04/19 07:23:26;;;;;;;52.40;37.37;;;9.90;99.90;;;;;;5068379;28;20488;-72
2021/04/19 07:26:12;;;;;;;60.17;38.60;;;9.90;99.90;;;;;;5058341;28;20818;-72
2021/04/19 07:28:57;;;;;;;51.63;35.37;;;10.10;99.90;;;;;;5056042;28;20501;-72
2021/04/19 07:31:53;;;;;;;49.30;36.10;;;10.30;99.90;;;;;;5064624;28;20859;-72
2021/04/19 07:34:38;;;;;;;54.63;38.27;;;10.40;99.90;;;;;;5055695;28;20503;-70
2021/04/19 07:37:23;;;;;;;52.20;35.80;;;10.50;99.90;;;;;;5062380;28;20977;-71
2021/04/19 07:40:28;;;;;;;53.60;35.13;;;10.50;99.90;;;;;;5061799;28;20442;-72
2021/04/19 07:43:14;;;;;;;49.03;34.00;;;10.60;99.90;;;;;;5065796;28;20421;-71
2021/04/19 07:46:01;;;;;;;46.10;33.40;;;10.70;99.90;;;;;;5059830;28;20445;-72
2021/04/19 07:48:49;;;;;;;41.20;30.20;;;10.80;99.90;;;;;;5058094;28;20477;-70
2021/04/19 07:51:36;;;;;;;37.60;28.43;;;10.80;99.90;;;;;;5063861;28;20449;-72
2021/04/19 07:54:23;;;;;;;35.70;23.93;;;10.80;99.90;;;;;;5054231;28;20810;-72
2021/04/19 07:57:11;;;;;;;38.53;26.30;;;10.90;99.90;;;;;;5066774;28;20530;-71
2021/04/19 07:59:57;;;;;;;34.20;24.80;;;11.00;99.90;;;;;;5062895;28;20532;-70
2021/04/19 08:02:42;;;;;;;43.50;28.00;;;11.00;99.90;;;;;;5057669;28;20421;-72
2021/04/19 08:05:33;;;;;;;35.90;26.10;;;11.10;99.90;;;;;;5065707;28;20840;-72
2021/04/19 08:08:20;;;;;;;39.53;26.40;;;11.10;99.90;;;;;;5054086;28;20831;-71
2021/04/19 08:11:07;;;;;;;35.77;25.20;;;11.10;99.90;;;;;;5063124;28;20563;-71
2021/04/19 08:13:52;;;;;;;37.63;27.30;;;11.10;99.90;;;;;;5060832;28;20462;-71
2021/04/19 08:16:37;;;;;;;34.87;26.03;;;11.20;99.90;;;;;;5059815;28;20807;-71
2021/04/19 08:19:33;;;;;;;29.37;23.40;;;11.20;99.90;;;;;;5059588;28;20450;-72
2021/04/19 08:22:21;;;;;;;37.17;24.53;;;11.30;99.90;;;;;;5063898;28;20439;-72
2021/04/19 08:25:12;;;;;;;35.30;26.30;;;11.30;99.90;;;;;;5056525;28;20509;-72
2021/04/19 08:28:02;;;;;;;35.57;23.93;;;11.40;99.90;;;;;;5058122;28;20463;-71
2021/04/19 08:30:49;;;;;;;33.17;24.47;;;11.40;99.90;;;;;;5063804;28;20531;-72
2021/04/19 08:33:36;;;;;;;29.80;24.10;;;11.50;99.90;;;;;;5064919;28;20507;-71
2021/04/19 08:36:21;;;;;;;26.47;20.80;;;11.50;99.90;;;;;;5065359;28;20421;-70
2021/04/19 08:39:07;;;;;;;28.17;20.50;;;11.50;99.90;;;;;;5065015;28;20413;-71
2021/04/19 08:41:52;;;;;;;32.13;22.80;;;11.50;99.90;;;;;;5068711;28;20466;-70
2021/04/19 08:44:37;;;;;;;28.33;22.70;;;11.50;99.90;;;;;;5065601;28;21008;-72
2021/04/19 08:47:27;;;;;;;29.57;22.30;;;11.50;99.90;;;;;;5056338;28;20486;-71
2021/04/19 08:50:17;;;;;;;25.60;19.97;;;11.60;99.90;;;;;;5060102;28;20439;-72
2021/04/19 08:53:03;;;;;;;27.03;20.43;;;11.60;99.90;;;;;;5057138;28;20564;-72
2021/04/19 08:55:50;;;;;;;27.20;20.70;;;11.70;99.90;;;;;;5063274;28;20465;-72
2021/04/19 08:58:35;;;;;;;32.20;21.33;;;11.70;99.90;;;;;;5061012;28;20463;-72
2021/04/19 09:01:21;;;;;;;29.57;21.27;;;11.60;99.90;;;;;;5063312;28;20413;-72
2021/04/19 09:04:07;;;;;;;29.40;20.73;;;11.70;99.90;;;;;;5054941;28;20494;-70
2021/04/19 09:06:53;;;;;;;24.20;17.77;;;11.80;99.90;;;;;;5061569;28;21031;-72
2021/04/19 09:09:41;;;;;;;24.00;16.97;;;11.90;99.90;;;;;;5063651;28;20490;-71
2021/04/19 09:12:29;;;;;;;22.10;16.50;;;11.80;99.90;;;;;;5069795;28;20493;-71
2021/04/19 09:15:25;;;;;;;20.03;15.70;;;11.90;99.90;;;;;;5058955;28;20571;-72
2021/04/19 09:18:11;;;;;;;21.27;13.60;;;11.90;99.90;;;;;;5062689;28;20459;-70
2021/04/19 09:20:57;;;;;;;19.13;13.70;;;11.90;99.90;;;;;;5062379;28;20416;-71
2021/04/19 09:23:55;;;;;;;19.17;14.50;;;11.80;99.90;;;;;;5060130;28;20509;-72
2021/04/19 09:26:53;;;;;;;15.10;11.47;;;11.90;99.90;;;;;;5061911;28;20455;-71
2021/04/19 09:29:48;;;;;;;14.13;10.20;;;11.90;99.90;;;;;;5056953;28;20556;-72
2021/04/19 09:32:34;;;;;;;12.83;10.00;;;11.80;99.90;;;;;;5060152;28;20531;-71
2021/04/19 09:35:41;;;;;;;13.60;9.60;;;11.80;99.90;;;;;;5063041;28;20479;-70
2021/04/19 09:38:51;;;;;;;14.13;11.10;;;11.70;99.90;;;;;;5060638;28;20501;-71
2021/04/19 09:41:48;;;;;;;14.87;9.73;;;11.60;99.90;;;;;;5056717;28;21011;-72
2021/04/19 09:44:33;;;;;;;12.77;10.87;;;11.60;99.90;;;;;;5055547;28;20556;-72
2021/04/19 09:47:47;;;;;;;12.70;9.77;;;11.60;99.90;;;;;;5054535;28;20421;-71
2021/04/19 09:50:33;;;;;;;11.80;10.07;;;11.60;99.90;;;;;;5060720;28;20478;-72
2021/04/19 09:53:18;;;;;;;10.43;7.47;;;11.60;99.90;;;;;;5064652;28;20410;-72
2021/04/19 09:56:04;;;;;;;9.93;7.67;;;11.60;99.90;;;;;;5065438;28;20546;-72
2021/04/19 09:58:49;;;;;;;7.97;6.90;;;11.70;99.90;;;;;;5062837;28;20836;-70
2021/04/19 10:01:36;;;;;;;9.27;7.30;;;11.70;99.90;;;;;;5061793;28;20447;-71
2021/04/19 10:04:24;;;;;;;10.73;7.60;;;11.80;99.90;;;;;;5063938;28;20493;-72
2021/04/19 10:07:12;;;;;;;11.27;7.80;;;11.70;99.90;;;;;;5066074;28;20471;-70
2021/04/19 10:10:00;;;;;;;12.53;10.60;;;11.70;99.90;;;;;;5063593;28;20422;-71
2021/04/19 10:12:47;;;;;;;13.60;11.77;;;11.70;99.90;;;;;;5069980;28;20474;-72
2021/04/19 10:15:32;;;;;;;19.60;12.40;;;11.70;99.90;;;;;;5060070;28;20578;-71
2021/04/19 10:18:17;;;;;;;12.43;9.53;;;11.70;99.90;;;;;;5063721;28;20420;-72
2021/04/19 10:21:04;;;;;;;17.57;14.10;;;11.60;99.90;;;;;;5064817;28;20417;-72
2021/04/19 10:23:50;;;;;;;20.90;13.63;;;11.50;99.90;;;;;;5058487;28;20484;-71
2021/04/19 10:26:38;;;;;;;15.40;12.20;;;11.40;99.90;;;;;;5063182;28;20418;-72
2021/04/19 10:29:27;;;;;;;17.03;14.63;;;11.30;99.90;;;;;;5065291;28;20437;-71
2021/04/19 10:32:12;;;;;;;16.97;13.07;;;11.30;99.90;;;;;;5062559;28;20444;-71
2021/04/19 10:34:57;;;;;;;16.17;12.63;;;11.30;99.90;;;;;;5065861;28;20482;-72
2021/04/19 10:37:47;;;;;;;16.60;12.83;;;11.30;99.90;;;;;;5061301;28;20489;-71
2021/04/19 10:40:32;;;;;;;17.53;13.10;;;11.30;99.90;;;;;;5062966;28;20430;-72
2021/04/19 10:43:17;;;;;;;19.43;14.80;;;11.40;99.90;;;;;;5059905;28;20978;-72
2021/04/19 10:46:18;;;;;;;18.17;13.10;;;11.30;99.90;;;;;;5065173;28;20878;-71
2021/04/19 10:49:05;;;;;;;14.90;11.40;;;11.00;99.90;;;;;;5060236;28;20488;-71
2021/04/19 10:51:55;;;;;;;17.17;13.20;;;11.00;99.90;;;;;;5068547;28;20500;-71
2021/04/19 10:54:43;;;;;;;12.23;10.43;;;11.10;99.90;;;;;;5065172;28;20456;-72
2021/04/19 10:57:29;;;;;;;13.80;10.50;;;11.20;99.90;;;;;;5060190;28;20514;-70
2021/04/19 11:00:15;;;;;;;13.40;10.83;;;11.10;99.90;;;;;;5058258;28;21089;-72
2021/04/19 11:03:01;;;;;;;13.33;10.33;;;11.20;99.90;;;;;;5058957;28;20979;-72
2021/04/19 11:05:47;;;;;;;11.47;9.43;;;11.30;99.90;;;;;;5063642;28;20441;-72
2021/04/19 11:09:04;;;;;;;13.80;10.40;;;11.40;99.90;;;;;;5067244;28;20442;-72
2021/04/19 11:11:51;;;;;;;7.70;6.57;;;11.50;99.90;;;;;;5034664;28;20447;-70
2021/04/19 11:14:37;;;;;;;6.37;5.27;;;11.70;99.90;;;;;;5058351;28;20488;-72
2021/04/19 11:17:29;;;;;;;6.13;5.03;;;11.80;99.90;;;;;;5056241;28;20441;-71
2021/04/19 11:20:23;;;;;;;8.80;6.10;;;12.00;99.90;;;;;;5056223;28;20518;-70
2021/04/19 11:23:23;;;;;;;7.00;6.10;;;12.10;99.90;;;;;;5060337;28;20417;-71
2021/04/19 11:26:11;;;;;;;7.50;5.83;;;12.30;99.90;;;;;;5059898;28;20469;-71
2021/04/19 11:28:56;;;;;;;7.67;5.40;;;12.40;99.90;;;;;;5063187;28;20837;-71
2021/04/19 11:31:46;;;;;;;7.13;6.40;;;12.50;99.90;;;;;;5061314;28;20987;-72
2021/04/19 11:34:36;;;;;;;11.57;7.67;;;12.70;99.90;;;;;;5065359;28;20441;-71
2021/04/19 11:37:32;;;;;;;9.07;6.90;;;12.70;99.90;;;;;;5054427;28;20449;-71
2021/04/19 11:40:27;;;;;;;8.33;6.70;;;12.70;99.90;;;;;;5059723;28;20486;-70
2021/04/19 11:43:20;;;;;;;8.13;6.17;;;12.60;99.90;;;;;;5059143;28;20903;-69
2021/04/19 11:46:08;;;;;;;8.90;6.30;;;12.40;99.90;;;;;;5062891;28;20478;-70
2021/04/19 11:48:53;;;;;;;7.90;6.43;;;12.50;99.90;;;;;;5058431;28;20421;-70
2021/04/19 11:51:39;;;;;;;8.77;5.87;;;12.70;99.90;;;;;;5061206;28;20482;-71
2021/04/19 11:54:24;;;;;;;6.70;5.70;;;12.80;99.90;;;;;;5062734;28;20493;-70
2021/04/19 11:57:09;;;;;;;7.23;6.03;;;13.00;99.90;;;;;;5060410;28;20465;-68
2021/04/19 11:59:54;;;;;;;5.53;4.03;;;13.00;99.90;;;;;;5065753;28;20543;-71
2021/04/19 12:02:41;;;;;;;5.50;4.13;;;13.10;99.90;;;;;;5064180;28;20429;-71
2021/04/19 12:05:26;;;;;;;5.07;4.03;;;13.20;99.90;;;;;;5061214;28;20448;-70
2021/04/19 12:08:12;;;;;;;6.40;3.77;;;13.20;99.90;;;;;;5087168;28;20482;-70
2021/04/19 12:10:57;;;;;;;5.53;3.50;;;13.10;99.90;;;;;;5061315;28;20428;-70
2021/04/19 12:13:42;;;;;;;4.50;3.73;;;13.10;99.90;;;;;;5064612;28;20449;-70
2021/04/19 12:16:27;;;;;;;6.80;3.80;;;13.10;99.90;;;;;;5065324;28;20471;-71
2021/04/19 12:19:13;;;;;;;5.63;3.13;;;13.10;99.90;;;;;;5063901;28;20970;-70
2021/04/19 12:21:58;;;;;;;3.73;2.90;;;13.10;99.90;;;;;;5063550;28;20418;-70
2021/04/19 12:24:44;;;;;;;4.23;3.40;;;12.80;99.90;;;;;;5063455;28;20507;-70
2021/04/19 12:27:29;;;;;;;4.53;3.10;;;12.70;99.90;;;;;;5062692;28;20429;-70
2021/04/19 12:30:15;;;;;;;4.60;2.97;;;12.50;99.90;;;;;;5062821;28;20454;-71
2021/04/19 12:33:00;;;;;;;4.30;3.03;;;12.30;99.90;;;;;;5059699;28;20502;-71
2021/04/19 12:35:47;;;;;;;4.70;3.57;;;12.30;99.90;;;;;;5054067;28;20453;-71
2021/04/19 12:38:32;;;;;;;4.43;3.43;;;12.30;99.90;;;;;;5060837;28;20439;-71
2021/04/19 12:41:17;;;;;;;3.40;2.77;;;12.20;99.90;;;;;;5057318;28;20410;-71
2021/04/19 12:44:02;;;;;;;5.13;4.10;;;12.10;99.90;;;;;;5057514;28;20563;-71
2021/04/19 12:46:47;;;;;;;5.33;4.80;;;11.90;99.90;;;;;;5063610;28;20443;-73
2021/04/19 12:49:32;;;;;;;6.70;5.00;;;11.90;99.90;;;;;;5062047;28;20445;-71
2021/04/19 12:52:18;;;;;;;6.17;4.43;;;11.90;99.90;;;;;;5055310;28;20453;-71
2021/04/19 12:55:04;;;;;;;8.00;6.50;;;12.00;99.90;;;;;;5064413;28;20493;-72
2021/04/19 12:57:49;;;;;;;7.63;5.80;;;12.10;99.90;;;;;;5059524;28;20450;-72
2021/04/19 13:00:34;;;;;;;5.70;4.50;;;12.20;99.90;;;;;;5060248;28;20417;-72
2021/04/19 13:03:19;;;;;;;5.80;4.20;;;12.30;99.90;;;;;;5062422;28;20979;-71
2021/04/19 13:06:05;;;;;;;4.73;3.33;;;12.40;99.90;;;;;;5063881;28;20491;-71
2021/04/19 13:08:52;;;;;;;5.00;3.90;;;12.40;99.90;;;;;;5060751;28;20460;-71
2021/04/19 13:11:37;;;;;;;6.50;4.60;;;12.40;99.90;;;;;;5060283;28;20584;-71
2021/04/19 13:14:24;;;;;;;5.13;4.13;;;12.50;99.90;;;;;;5068284;28;20570;-71
2021/04/19 13:17:09;;;;;;;6.00;3.87;;;12.50;99.90;;;;;;5062177;28;20568;-71
2021/04/19 13:19:55;;;;;;;4.90;4.40;;;12.70;99.90;;;;;;5060723;28;20421;-71
2021/04/19 13:22:40;;;;;;;14.13;4.80;;;12.90;99.90;;;;;;5059339;28;20820;-72
2021/04/19 13:25:26;;;;;;;6.70;3.90;;;13.20;99.90;;;;;;5063744;28;20454;-71
2021/04/19 13:28:11;;;;;;;6.27;4.17;;;13.70;99.90;;;;;;5064183;28;20424;-71
2021/04/19 13:30:56;;;;;;;5.10;4.20;;;14.30;99.90;;;;;;5059472;28;20486;-71
2021/04/19 13:33:41;;;;;;;4.13;3.17;;;14.80;99.90;;;;;;5063902;28;20434;-71
2021/04/19 13:36:26;;;;;;;4.37;3.13;;;15.00;99.90;;;;;;5071385;28;20485;-71
2021/04/19 13:39:11;;;;;;;5.93;2.60;;;14.70;99.90;;;;;;5062464;28;20482;-71
2021/04/19 13:41:57;;;;;;;4.60;3.00;;;14.20;99.90;;;;;;5067358;28;20989;-71
2021/04/19 13:44:43;;;;;;;4.07;2.87;;;13.80;99.90;;;;;;5064064;28;20437;-71
2021/04/19 13:47:28;;;;;;;4.53;3.53;;;13.60;99.90;;;;;;5069783;28;20500;-71
2021/04/19 13:50:14;;;;;;;5.30;3.73;;;13.40;99.90;;;;;;5065280;28;20457;-70
2021/04/19 13:53:00;;;;;;;4.00;3.17;;;13.20;99.90;;;;;;5071000;28;20452;-69
2021/04/19 13:55:45;;;;;;;5.70;3.70;;;13.20;99.90;;;;;;5069450;28;20867;-71
2021/04/19 13:58:30;;;;;;;4.43;3.57;;;13.20;99.90;;;;;;5065687;28;20432;-71
2021/04/19 14:01:16;;;;;;;5.90;4.17;;;13.30;99.90;;;;;;5060315;28;21307;-70
2021/04/19 14:04:01;;;;;;;5.23;3.33;;;13.00;99.90;;;;;;5061108;28;20471;-72
2021/04/19 14:06:46;;;;;;;4.77;3.90;;;12.90;99.90;;;;;;5059928;28;20927;-71
2021/04/19 14:09:31;;;;;;;5.80;3.20;;;12.70;99.90;;;;;;5062763;28;20830;-72
2021/04/19 14:12:17;;;;;;;4.20;3.00;;;12.50;99.90;;;;;;5063643;28;20445;-72
2021/04/19 14:15:04;;;;;;;3.43;2.47;;;12.30;99.90;;;;;;5066262;28;20509;-72
2021/04/19 14:17:49;;;;;;;4.67;3.10;;;12.10;99.90;;;;;;5056256;28;20923;-72
2021/04/19 14:20:34;;;;;;;3.90;3.03;;;12.00;99.90;;;;;;5065449;28;20450;-73